sensor_id;sensor_type;location;lat;lon;timestamp;pressure;altitude;pressure_sealevel;temperature;humidity
72798;BME280;61084;55.816;37.036;2023-02-28T00:00:18;100017.38;;;-6.04;64.59
72798;BME280;61084;55.816;37.036;2023-02-28T00:02:45;100010.56;;;-6.05;64.64
72798;BME280;61084;55.816;37.036;2023-02-28T00:05:13;100007.16;;;-6.04;64.53
72798;BME280;61084;55.816;37.036;2023-02-28T00:07:39;100002.06;;;-6.04;64.89
72798;BME280;61084;55.816;37.036;2023-02-28T00:10:07;99997.00;;;-6.03;64.56
72798;BME280;61084;55.816;37.036;2023-02-28T00:12:35;100006.44;;;-6.00;64.41
72798;BME280;61084;55.816;37.036;2023-02-28T00:15:01;99995.34;;;-6.01;64.29
72798;BME280;61084;55.816;37.036;2023-02-28T00:17:29;99986.81;;;-6.00;64.10
72798;BME280;61084;55.816;37.036;2023-02-28T00:19:55;99986.03;;;-5.97;64.27
72798;BME280;61084;55.816;37.036;2023-02-28T00:22:22;99980.13;;;-5.96;64.22
72798;BME280;61084;55.816;37.036;2023-02-28T00:24:47;99979.28;;;-5.95;64.54
72798;BME280;61084;55.816;37.036;2023-02-28T00:27:14;99981.03;;;-5.93;64.36
72798;BME280;61084;55.816;37.036;2023-02-28T00:29:40;99977.59;;;-5.93;64.46
72798;BME280;61084;55.816;37.036;2023-02-28T00:32:06;99976.81;;;-5.91;64.85
72798;BME280;61084;55.816;37.036;2023-02-28T00:34:32;99975.91;;;-5.93;64.69
72798;BME280;61084;55.816;37.036;2023-02-28T00:37:07;99977.66;;;-5.92;64.86
72798;BME280;61084;55.816;37.036;2023-02-28T00:39:34;99965.72;;;-5.91;64.91
72798;BME280;61084;55.816;37.036;2023-02-28T00:42:00;99965.78;;;-5.90;65.25
72798;BME280;61084;55.816;37.036;2023-02-28T00:44:26;99970.03;;;-5.90;65.12
72798;BME280;61084;55.816;37.036;2023-02-28T00:46:52;99966.66;;;-5.89;65.05
72798;BME280;61084;55.816;37.036;2023-02-28T00:49:24;99958.94;;;-5.91;65.28
72798;BME280;61084;55.816;37.036;2023-02-28T00:51:50;99956.44;;;-5.89;65.29
72798;BME280;61084;55.816;37.036;2023-02-28T00:54:18;99942.00;;;-5.87;65.11
72798;BME280;61084;55.816;37.036;2023-02-28T00:56:47;99943.66;;;-5.89;64.98
72798;BME280;61084;55.816;37.036;2023-02-28T00:59:13;99936.78;;;-5.92;65.21
72798;BME280;61084;55.816;37.036;2023-02-28T01:01:40;99930.81;;;-5.91;65.18
72798;BME280;61084;55.816;37.036;2023-02-28T01:04:06;99941.91;;;-5.92;64.96
72798;BME280;61084;55.816;37.036;2023-02-28T01:06:32;99930.81;;;-5.91;64.55
72798;BME280;61084;55.816;37.036;2023-02-28T01:08:59;99929.06;;;-5.93;64.87
72798;BME280;61084;55.816;37.036;2023-02-28T01:11:25;99929.94;;;-5.91;64.84
72798;BME280;61084;55.816;37.036;2023-02-28T01:13:52;99918.09;;;-5.89;64.76
72798;BME280;61084;55.816;37.036;2023-02-28T01:16:18;99908.72;;;-5.89;64.58
72798;BME280;61084;55.816;37.036;2023-02-28T01:18:44;99898.47;;;-5.92;64.56
72798;BME280;61084;55.816;37.036;2023-02-28T01:21:16;99896.75;;;-5.91;64.80
72798;BME280;61084;55.816;37.036;2023-02-28T01:23:44;99895.03;;;-5.92;64.74
72798;BME280;61084;55.816;37.036;2023-02-28T01:26:14;99890.72;;;-5.95;64.73
72798;BME280;61084;55.816;37.036;2023-02-28T01:28:40;99886.47;;;-5.94;64.47
72798;BME280;61084;55.816;37.036;2023-02-28T01:31:06;99880.50;;;-5.95;64.80
72798;BME280;61084;55.816;37.036;2023-02-28T01:33:32;99876.25;;;-5.96;64.37
72798;BME280;61084;55.816;37.036;2023-02-28T01:36:00;99863.38;;;-6.00;64.56
72798;BME280;61084;55.816;37.036;2023-02-28T01:38:26;99862.53;;;-5.99;64.51
72798;BME280;61084;55.816;37.036;2023-02-28T01:40:53;99854.75;;;-6.04;64.64
72798;BME280;61084;55.816;37.036;2023-02-28T01:45:51;99841.97;;;-6.05;64.38
72798;BME280;61084;55.816;37.036;2023-02-28T01:48:21;99820.66;;;-6.07;64.54
72798;BME280;61084;55.816;37.036;2023-02-28T01:50:49;99826.53;;;-6.11;64.13
72798;BME280;61084;55.816;37.036;2023-02-28T01:53:18;99828.22;;;-6.12;64.50
72798;BME280;61084;55.816;37.036;2023-02-28T01:55:48;99829.81;;;-6.17;64.43
72798;BME280;61084;55.816;37.036;2023-02-28T01:58:16;99819.56;;;-6.19;64.38
72798;BME280;61084;55.816;37.036;2023-02-28T02:00:42;99818.69;;;-6.19;65.03
72798;BME280;61084;55.816;37.036;2023-02-28T02:03:13;99812.69;;;-6.21;65.06
72798;BME280;61084;55.816;37.036;2023-02-28T02:05:41;99810.06;;;-6.24;64.64
72798;BME280;61084;55.816;37.036;2023-02-28T02:08:12;99798.97;;;-6.26;64.67
72798;BME280;61084;55.816;37.036;2023-02-28T02:10:42;99811.72;;;-6.28;64.60
72798;BME280;61084;55.816;37.036;2023-02-28T02:16:08;99802.34;;;-6.29;64.17
72798;BME280;61084;55.816;37.036;2023-02-28T02:18:46;99802.34;;;-6.29;64.39
72798;BME280;61084;55.816;37.036;2023-02-28T02:21:29;99802.31;;;-6.30;64.51
72798;BME280;61084;55.816;37.036;2023-02-28T02:27:21;99787.81;;;-6.31;64.59
72798;BME280;61084;55.816;37.036;2023-02-28T02:36:34;99774.09;;;-6.36;64.65
72798;BME280;61084;55.816;37.036;2023-02-28T02:38:58;99769.88;;;-6.36;64.62
72798;BME280;61084;55.816;37.036;2023-02-28T02:41:37;99752.88;;;-6.34;64.80
72798;BME280;61084;55.816;37.036;2023-02-28T02:44:51;99759.66;;;-6.36;65.07
72798;BME280;61084;55.816;37.036;2023-02-28T02:47:06;99762.19;;;-6.37;64.55
72798;BME280;61084;55.816;37.036;2023-02-28T02:49:36;99757.81;;;-6.41;64.73
72798;BME280;61084;55.816;37.036;2023-02-28T02:52:08;99751.00;;;-6.42;64.76
72798;BME280;61084;55.816;37.036;2023-02-28T02:54:43;99748.47;;;-6.41;64.82
72798;BME280;61084;55.816;37.036;2023-02-28T02:57:14;99746.72;;;-6.43;64.45
72798;BME280;61084;55.816;37.036;2023-02-28T02:59:43;99745.03;;;-6.43;64.58
72798;BME280;61084;55.816;37.036;2023-02-28T03:02:12;99741.56;;;-6.46;64.64
72798;BME280;61084;55.816;37.036;2023-02-28T03:04:45;99729.59;;;-6.49;64.83
72798;BME280;61084;55.816;37.036;2023-02-28T03:07:12;99731.28;;;-6.51;64.85
72798;BME280;61084;55.816;37.036;2023-02-28T03:09:38;99726.97;;;-6.53;65.24
72798;BME280;61084;55.816;37.036;2023-02-28T03:12:09;99721.84;;;-6.53;65.08
72798;BME280;61084;55.816;37.036;2023-02-28T03:14:40;99715.88;;;-6.55;64.94
72798;BME280;61084;55.816;37.036;2023-02-28T03:26:07;99697.97;;;-6.57;65.05
72798;BME280;61084;55.816;37.036;2023-02-28T03:30:59;99685.16;;;-6.60;65.35
72798;BME280;61084;55.816;37.036;2023-02-28T03:36:24;99701.31;;;-6.59;65.10
72798;BME280;61084;55.816;37.036;2023-02-28T03:41:19;99697.88;;;-6.61;65.24
72798;BME280;61084;55.816;37.036;2023-02-28T03:43:53;99690.22;;;-6.61;65.25
72798;BME280;61084;55.816;37.036;2023-02-28T03:46:22;99684.28;;;-6.60;65.24
72798;BME280;61084;55.816;37.036;2023-02-28T03:48:56;99672.38;;;-6.60;65.32
72798;BME280;61084;55.816;37.036;2023-02-28T03:51:26;99669.75;;;-6.63;65.11
72798;BME280;61084;55.816;37.036;2023-02-28T03:53:57;99656.09;;;-6.66;65.08
72798;BME280;61084;55.816;37.036;2023-02-28T03:56:34;99654.34;;;-6.67;65.55
72798;BME280;61084;55.816;37.036;2023-02-28T04:01:47;99651.84;;;-6.66;65.29
72798;BME280;61084;55.816;37.036;2023-02-28T04:04:14;99645.91;;;-6.65;65.43
72798;BME280;61084;55.816;37.036;2023-02-28T04:06:41;99643.31;;;-6.68;64.92
72798;BME280;61084;55.816;37.036;2023-02-28T04:09:09;99656.03;;;-6.69;65.29
72798;BME280;61084;55.816;37.036;2023-02-28T04:11:38;99644.13;;;-6.70;65.28
72798;BME280;61084;55.816;37.036;2023-02-28T04:14:05;99639.00;;;-6.70;65.27
72798;BME280;61084;55.816;37.036;2023-02-28T04:16:32;99639.91;;;-6.68;65.36
72798;BME280;61084;55.816;37.036;2023-02-28T04:18:58;99640.72;;;-6.69;65.16
72798;BME280;61084;55.816;37.036;2023-02-28T04:21:35;99633.84;;;-6.72;65.02
72798;BME280;61084;55.816;37.036;2023-02-28T04:24:01;99621.94;;;-6.73;65.13
72798;BME280;61084;55.816;37.036;2023-02-28T04:26:31;99621.94;;;-6.73;65.24
72798;BME280;61084;55.816;37.036;2023-02-28T04:28:58;99625.31;;;-6.74;64.90
72798;BME280;61084;55.816;37.036;2023-02-28T04:31:24;99621.09;;;-6.72;65.04
72798;BME280;61084;55.816;37.036;2023-02-28T04:33:50;99602.41;;;-6.71;65.19
72798;BME280;61084;55.816;37.036;2023-02-28T04:36:15;99597.31;;;-6.71;64.84
72798;BME280;61084;55.816;37.036;2023-02-28T04:38:43;99596.44;;;-6.71;65.38
72798;BME280;61084;55.816;37.036;2023-02-28T04:41:09;99593.09;;;-6.69;65.13
72798;BME280;61084;55.816;37.036;2023-02-28T04:43:35;99588.00;;;-6.69;64.94
72798;BME280;61084;55.816;37.036;2023-02-28T04:46:03;99583.78;;;-6.65;64.96
72798;BME280;61084;55.816;37.036;2023-02-28T04:48:32;99576.28;;;-6.59;65.05
72798;BME280;61084;55.816;37.036;2023-02-28T04:51:02;99573.75;;;-6.58;64.89
72798;BME280;61084;55.816;37.036;2023-02-28T04:53:29;99570.38;;;-6.57;65.05
72798;BME280;61084;55.816;37.036;2023-02-28T04:55:56;99568.69;;;-6.55;65.09
72798;BME280;61084;55.816;37.036;2023-02-28T04:58:22;99559.41;;;-6.50;64.77
72798;BME280;61084;55.816;37.036;2023-02-28T05:00:52;99553.50;;;-6.49;64.94
72798;BME280;61084;55.816;37.036;2023-02-28T05:03:19;99553.59;;;-6.43;64.85
72798;BME280;61084;55.816;37.036;2023-02-28T05:05:46;99536.66;;;-6.38;64.99
72798;BME280;61084;55.816;37.036;2023-02-28T05:08:12;99536.66;;;-6.36;64.91
72798;BME280;61084;55.816;37.036;2023-02-28T05:10:38;99533.38;;;-6.31;64.72
72798;BME280;61084;55.816;37.036;2023-02-28T05:13:04;99529.09;;;-6.32;64.57
72798;BME280;61084;55.816;37.036;2023-02-28T05:15:29;99526.59;;;-6.29;64.53
72798;BME280;61084;55.816;37.036;2023-02-28T05:17:55;99530.84;;;-6.28;64.87
72798;BME280;61084;55.816;37.036;2023-02-28T05:20:21;99523.22;;;-6.26;64.64
72798;BME280;61084;55.816;37.036;2023-02-28T05:22:47;99507.97;;;-6.22;64.56
72798;BME280;61084;55.816;37.036;2023-02-28T05:25:18;99505.47;;;-6.17;64.67
72798;BME280;61084;55.816;37.036;2023-02-28T05:27:44;99503.81;;;-6.15;64.51
72798;BME280;61084;55.816;37.036;2023-02-28T05:30:10;99492.84;;;-6.08;64.42
72798;BME280;61084;55.816;37.036;2023-02-28T05:32:37;99494.69;;;-5.98;64.40
72798;BME280;61084;55.816;37.036;2023-02-28T05:35:04;99486.19;;;-5.97;64.35
72798;BME280;61084;55.816;37.036;2023-02-28T05:37:30;99476.88;;;-5.93;64.36
72798;BME280;61084;55.816;37.036;2023-02-28T05:39:56;99465.03;;;-5.88;64.46
72798;BME280;61084;55.816;37.036;2023-02-28T05:42:22;99457.38;;;-5.82;63.88
72798;BME280;61084;55.816;37.036;2023-02-28T05:44:47;99448.09;;;-5.79;64.19
72798;BME280;61084;55.816;37.036;2023-02-28T05:47:13;99437.94;;;-5.71;64.20
72798;BME280;61084;55.816;37.036;2023-02-28T05:49:41;99442.25;;;-5.69;64.14
72798;BME280;61084;55.816;37.036;2023-02-28T05:52:07;99447.47;;;-5.58;64.17
72798;BME280;61084;55.816;37.036;2023-02-28T05:54:33;99445.91;;;-5.46;64.09
72798;BME280;61084;55.816;37.036;2023-02-28T05:56:59;99437.47;;;-5.42;63.97
72798;BME280;61084;55.816;37.036;2023-02-28T05:59:25;99424.66;;;-5.42;63.99
72798;BME280;61084;55.816;37.036;2023-02-28T06:01:51;99420.44;;;-5.38;63.84
72798;BME280;61084;55.816;37.036;2023-02-28T06:04:19;99411.13;;;-5.30;64.07
72798;BME280;61084;55.816;37.036;2023-02-28T06:06:49;99409.44;;;-5.28;63.83
72798;BME280;61084;55.816;37.036;2023-02-28T06:09:16;99407.75;;;-5.29;63.82
72798;BME280;61084;55.816;37.036;2023-02-28T06:11:42;99407.81;;;-5.21;63.92
72798;BME280;61084;55.816;37.036;2023-02-28T06:14:14;99391.69;;;-5.14;64.06
72798;BME280;61084;55.816;37.036;2023-02-28T06:16:40;99384.88;;;-5.11;63.63
72798;BME280;61084;55.816;37.036;2023-02-28T06:19:06;99390.06;;;-5.05;64.08
72798;BME280;61084;55.816;37.036;2023-02-28T06:21:32;99373.91;;;-4.99;63.91
72798;BME280;61084;55.816;37.036;2023-02-28T06:23:58;99361.97;;;-4.96;63.75
72798;BME280;61084;55.816;37.036;2023-02-28T06:26:24;99349.25;;;-4.90;63.78
72798;BME280;61084;55.816;37.036;2023-02-28T06:28:50;99347.53;;;-4.89;63.15
72798;BME280;61084;55.816;37.036;2023-02-28T06:31:17;99352.72;;;-4.80;63.22
72798;BME280;61084;55.816;37.036;2023-02-28T06:33:44;99357.06;;;-4.67;63.47
72798;BME280;61084;55.816;37.036;2023-02-28T06:36:12;99345.19;;;-4.59;63.68
72798;BME280;61084;55.816;37.036;2023-02-28T06:38:38;99329.84;;;-4.54;63.40
72798;BME280;61084;55.816;37.036;2023-02-28T06:41:05;99330.72;;;-4.49;63.63
72798;BME280;61084;55.816;37.036;2023-02-28T06:43:35;99315.41;;;-4.46;62.39
72798;BME280;61084;55.816;37.036;2023-02-28T06:46:04;99317.94;;;-4.43;63.23
72798;BME280;61084;55.816;37.036;2023-02-28T06:48:30;99307.75;;;-4.42;63.08
72798;BME280;61084;55.816;37.036;2023-02-28T06:51:04;99304.34;;;-4.32;63.41
72798;BME280;61084;55.816;37.036;2023-02-28T06:53:30;99295.03;;;-4.22;63.43
72798;BME280;61084;55.816;37.036;2023-02-28T06:55:56;99278.81;;;-4.17;63.13
72798;BME280;61084;55.816;37.036;2023-02-28T06:58:22;99266.88;;;-4.13;63.32
72798;BME280;61084;55.816;37.036;2023-02-28T07:00:51;99270.31;;;-4.04;62.83
72798;BME280;61084;55.816;37.036;2023-02-28T07:03:18;99277.16;;;-3.95;63.31
72798;BME280;61084;55.816;37.036;2023-02-28T07:05:44;99264.34;;;-3.89;63.22
72798;BME280;61084;55.816;37.036;2023-02-28T07:08:11;99266.91;;;-3.89;62.90
72798;BME280;61084;55.816;37.036;2023-02-28T07:10:37;99247.28;;;-3.86;63.21
72798;BME280;61084;55.816;37.036;2023-02-28T07:13:10;99249.00;;;-3.78;63.43
72798;BME280;61084;55.816;37.036;2023-02-28T07:15:37;99237.03;;;-3.75;63.40
72798;BME280;61084;55.816;37.036;2023-02-28T07:18:02;99231.06;;;-3.65;63.53
72798;BME280;61084;55.816;37.036;2023-02-28T07:20:29;99237.91;;;-3.56;63.45
72798;BME280;61084;55.816;37.036;2023-02-28T07:22:55;99225.09;;;-3.49;63.42
72798;BME280;61084;55.816;37.036;2023-02-28T07:25:26;99233.63;;;-3.41;63.39
72798;BME280;61084;55.816;37.036;2023-02-28T07:27:53;99222.50;;;-3.37;63.15
72798;BME280;61084;55.816;37.036;2023-02-28T07:30:19;99209.69;;;-3.34;63.46
72798;BME280;61084;55.816;37.036;2023-02-28T07:32:46;99207.97;;;-3.26;63.25
72798;BME280;61084;55.816;37.036;2023-02-28T07:35:12;99200.28;;;-3.18;63.43
72798;BME280;61084;55.816;37.036;2023-02-28T07:37:41;99201.09;;;-3.10;63.43
72798;BME280;61084;55.816;37.036;2023-02-28T07:40:10;99195.09;;;-3.03;63.57
72798;BME280;61084;55.816;37.036;2023-02-28T07:42:40;99206.22;;;-2.98;63.31
72798;BME280;61084;55.816;37.036;2023-02-28T07:45:09;99198.50;;;-2.92;63.07
72798;BME280;61084;55.816;37.036;2023-02-28T07:47:41;99188.22;;;-2.86;63.70
72798;BME280;61084;55.816;37.036;2023-02-28T07:50:09;99186.50;;;-2.81;63.31
72798;BME280;61084;55.816;37.036;2023-02-28T07:52:37;99184.75;;;-2.70;63.55
72798;BME280;61084;55.816;37.036;2023-02-28T07:55:03;99169.28;;;-2.59;63.18
72798;BME280;61084;55.816;37.036;2023-02-28T07:57:30;99163.22;;;-2.48;63.22
72798;BME280;61084;55.816;37.036;2023-02-28T07:59:55;99173.47;;;-2.43;62.73
72798;BME280;61084;55.816;37.036;2023-02-28T08:02:21;99169.16;;;-2.37;62.99
72798;BME280;61084;55.816;37.036;2023-02-28T08:04:47;99158.88;;;-2.34;62.75
72798;BME280;61084;55.816;37.036;2023-02-28T08:07:13;99164.88;;;-2.33;62.88
72798;BME280;61084;55.816;37.036;2023-02-28T08:09:40;99140.00;;;-2.26;63.07
72798;BME280;61084;55.816;37.036;2023-02-28T08:12:07;99142.53;;;-2.22;62.92
72798;BME280;61084;55.816;37.036;2023-02-28T08:14:33;99149.34;;;-2.18;62.91
72798;BME280;61084;55.816;37.036;2023-02-28T08:16:59;99137.34;;;-2.17;62.75
72798;BME280;61084;55.816;37.036;2023-02-28T08:19:25;99126.19;;;-2.13;62.90
72798;BME280;61084;55.816;37.036;2023-02-28T08:21:51;99111.56;;;-2.02;62.88
72798;BME280;61084;55.816;37.036;2023-02-28T08:24:16;99114.94;;;-1.96;62.85
72798;BME280;61084;55.816;37.036;2023-02-28T08:26:42;99120.00;;;-1.91;63.01
72798;BME280;61084;55.816;37.036;2023-02-28T08:29:08;99159.38;;;-1.85;63.16
72798;BME280;61084;55.816;37.036;2023-02-28T08:31:34;99167.13;;;-1.88;62.67
72798;BME280;61084;55.816;37.036;2023-02-28T08:34:06;99180.06;;;-1.97;62.78
72798;BME280;61084;55.816;37.036;2023-02-28T08:36:32;99180.97;;;-2.02;62.90
72798;BME280;61084;55.816;37.036;2023-02-28T08:38:57;99191.25;;;-2.08;63.04
72798;BME280;61084;55.816;37.036;2023-02-28T08:41:25;99184.41;;;-2.08;63.21
72798;BME280;61084;55.816;37.036;2023-02-28T08:43:51;99181.88;;;-2.09;62.96
72798;BME280;61084;55.816;37.036;2023-02-28T08:46:19;99183.56;;;-2.10;63.16
72798;BME280;61084;55.816;37.036;2023-02-28T08:48:45;99180.94;;;-2.04;63.28
72798;BME280;61084;55.816;37.036;2023-02-28T08:51:14;99178.41;;;-2.02;63.19
72798;BME280;61084;55.816;37.036;2023-02-28T08:53:46;99177.50;;;-2.01;63.24
72798;BME280;61084;55.816;37.036;2023-02-28T08:56:15;99177.47;;;-1.94;63.32
72798;BME280;61084;55.816;37.036;2023-02-28T08:58:42;99174.91;;;-1.94;62.98
72798;BME280;61084;55.816;37.036;2023-02-28T09:01:20;99166.31;;;-1.90;62.96
72798;BME280;61084;55.816;37.036;2023-02-28T09:03:48;99159.38;;;-1.85;63.20
72798;BME280;61084;55.816;37.036;2023-02-28T09:06:15;99149.06;;;-1.77;63.32
72798;BME280;61084;55.816;37.036;2023-02-28T09:08:42;99148.13;;;-1.72;63.17
72798;BME280;61084;55.816;37.036;2023-02-28T09:11:09;99136.97;;;-1.66;63.21
72798;BME280;61084;55.816;37.036;2023-02-28T09:13:35;99123.25;;;-1.68;63.00
72798;BME280;61084;55.816;37.036;2023-02-28T09:16:04;99112.06;;;-1.64;63.13
72798;BME280;61084;55.816;37.036;2023-02-28T09:18:30;99128.34;;;-1.62;63.13
72798;BME280;61084;55.816;37.036;2023-02-28T09:20:56;99131.78;;;-1.62;63.23
72798;BME280;61084;55.816;37.036;2023-02-28T09:23:23;99127.53;;;-1.66;63.36
72798;BME280;61084;55.816;37.036;2023-02-28T09:25:51;99144.72;;;-1.72;63.23
72798;BME280;61084;55.816;37.036;2023-02-28T09:28:18;99149.03;;;-1.73;63.10
72798;BME280;61084;55.816;37.036;2023-02-28T09:30:45;99143.00;;;-1.70;63.31
72798;BME280;61084;55.816;37.036;2023-02-28T09:33:13;99147.25;;;-1.66;63.32
72798;BME280;61084;55.816;37.036;2023-02-28T09:35:39;99134.38;;;-1.66;63.51
72798;BME280;61084;55.816;37.036;2023-02-28T09:38:06;99124.94;;;-1.67;63.43
72798;BME280;61084;55.816;37.036;2023-02-28T09:40:38;99125.78;;;-1.65;63.31
72798;BME280;61084;55.816;37.036;2023-02-28T09:43:05;99115.50;;;-1.65;63.72
72798;BME280;61084;55.816;37.036;2023-02-28T09:45:42;99100.03;;;-1.61;63.61
72798;BME280;61084;55.816;37.036;2023-02-28T09:48:16;99089.72;;;-1.61;63.58
72798;BME280;61084;55.816;37.036;2023-02-28T09:51:02;99093.19;;;-1.63;63.61
72798;BME280;61084;55.816;37.036;2023-02-28T09:53:34;99091.50;;;-1.64;63.55
72798;BME280;61084;55.816;37.036;2023-02-28T09:56:20;99082.06;;;-1.64;63.59
72798;BME280;61084;55.816;37.036;2023-02-28T09:59:42;99097.44;;;-1.58;63.67
72798;BME280;61084;55.816;37.036;2023-02-28T10:10:26;99043.38;;;-1.55;63.71
72798;BME280;61084;55.816;37.036;2023-02-28T10:12:57;99041.66;;;-1.52;64.08
72798;BME280;61084;55.816;37.036;2023-02-28T10:15:25;99035.63;;;-1.52;64.53
72798;BME280;61084;55.816;37.036;2023-02-28T10:18:02;99028.75;;;-1.51;64.20
72798;BME280;61084;55.816;37.036;2023-02-28T10:20:33;99013.38;;;-1.56;64.39
72798;BME280;61084;55.816;37.036;2023-02-28T10:23:20;99032.03;;;-1.38;64.38
72798;BME280;61084;55.816;37.036;2023-02-28T10:26:03;99031.13;;;-1.33;64.38
72798;BME280;61084;55.816;37.036;2023-02-28T10:28:31;99040.47;;;-1.27;64.17
72798;BME280;61084;55.816;37.036;2023-02-28T10:30:57;99036.13;;;-1.21;64.39
72798;BME280;61084;55.816;37.036;2023-02-28T10:33:25;99033.50;;;-1.16;64.39
72798;BME280;61084;55.816;37.036;2023-02-28T10:35:53;99035.22;;;-1.15;64.20
72798;BME280;61084;55.816;37.036;2023-02-28T10:38:27;99031.75;;;-1.14;64.34
72798;BME280;61084;55.816;37.036;2023-02-28T10:43:34;99012.88;;;-1.13;64.84
72798;BME280;61084;55.816;37.036;2023-02-28T10:48:57;98995.66;;;-1.13;64.47
72798;BME280;61084;55.816;37.036;2023-02-28T10:51:24;98984.50;;;-1.10;64.73
72798;BME280;61084;55.816;37.036;2023-02-28T10:53:51;98982.00;;;-1.16;64.75
72798;BME280;61084;55.816;37.036;2023-02-28T10:56:21;98980.19;;;-1.10;64.77
72798;BME280;61084;55.816;37.036;2023-02-28T11:01:46;98962.81;;;-0.96;64.81
72798;BME280;61084;55.816;37.036;2023-02-28T11:07:17;98956.78;;;-0.92;65.18
72798;BME280;61084;55.816;37.036;2023-02-28T11:09:47;98952.50;;;-0.94;64.83
72798;BME280;61084;55.816;37.036;2023-02-28T11:12:25;98941.41;;;-0.99;65.07
72798;BME280;61084;55.816;37.036;2023-02-28T11:15:03;98938.84;;;-0.99;65.11
72798;BME280;61084;55.816;37.036;2023-02-28T11:17:31;98939.63;;;-0.94;65.12
72798;BME280;61084;55.816;37.036;2023-02-28T11:20:01;98940.34;;;-0.85;64.86
72798;BME280;61084;55.816;37.036;2023-02-28T11:22:36;98942.03;;;-0.82;65.47
72798;BME280;61084;55.816;37.036;2023-02-28T11:25:13;98948.00;;;-0.79;64.95
72798;BME280;61084;55.816;37.036;2023-02-28T11:27:54;98953.06;;;-0.72;64.87
72798;BME280;61084;55.816;37.036;2023-02-28T11:32:54;98944.50;;;-0.76;65.59
72798;BME280;61084;55.816;37.036;2023-02-28T11:35:36;98949.75;;;-0.81;65.18
72798;BME280;61084;55.816;37.036;2023-02-28T11:38:07;98936.00;;;-0.81;65.27
72798;BME280;61084;55.816;37.036;2023-02-28T11:43:35;98934.16;;;-0.73;65.50
72798;BME280;61084;55.816;37.036;2023-02-28T11:46:33;98930.72;;;-0.72;65.51
72798;BME280;61084;55.816;37.036;2023-02-28T11:49:28;98932.47;;;-0.74;66.11
72798;BME280;61084;55.816;37.036;2023-02-28T11:57:28;98899.81;;;-0.72;66.45
72798;BME280;61084;55.816;37.036;2023-02-28T12:16:37;98882.66;;;-0.74;66.71
72798;BME280;61084;55.816;37.036;2023-02-28T12:19:16;98894.72;;;-0.77;67.02
72798;BME280;61084;55.816;37.036;2023-02-28T12:24:44;98886.84;;;-0.69;67.15
72798;BME280;61084;55.816;37.036;2023-02-28T12:27:16;98870.53;;;-0.68;67.14
72798;BME280;61084;55.816;37.036;2023-02-28T12:29:51;98858.41;;;-0.63;67.22
72798;BME280;61084;55.816;37.036;2023-02-28T12:32:29;98852.41;;;-0.63;67.49
72798;BME280;61084;55.816;37.036;2023-02-28T12:37:57;98849.81;;;-0.62;68.08
72798;BME280;61084;55.816;37.036;2023-02-28T12:40:43;98854.06;;;-0.59;67.90
72798;BME280;61084;55.816;37.036;2023-02-28T12:43:13;98841.16;;;-0.58;68.14
72798;BME280;61084;55.816;37.036;2023-02-28T12:45:45;98841.16;;;-0.58;67.26
72798;BME280;61084;55.816;37.036;2023-02-28T12:48:42;98829.97;;;-0.57;67.81
72798;BME280;61084;55.816;37.036;2023-02-28T12:51:09;98820.50;;;-0.55;68.02
72798;BME280;61084;55.816;37.036;2023-02-28T12:56:39;98805.97;;;-0.59;68.53
72798;BME280;61084;55.816;37.036;2023-02-28T13:09:55;98801.63;;;-0.57;67.93
72798;BME280;61084;55.816;37.036;2023-02-28T13:12:22;98787.75;;;-0.51;68.01
72798;BME280;61084;55.816;37.036;2023-02-28T13:14:49;98785.19;;;-0.51;67.43
72798;BME280;61084;55.816;37.036;2023-02-28T13:17:23;98773.97;;;-0.49;67.97
72798;BME280;61084;55.816;37.036;2023-02-28T13:24:55;98780.97;;;-0.55;68.27
72798;BME280;61084;55.816;37.036;2023-02-28T13:27:24;98784.31;;;-0.50;68.60
72798;BME280;61084;55.816;37.036;2023-02-28T13:29:52;98785.16;;;-0.48;68.58
72798;BME280;61084;55.816;37.036;2023-02-28T13:47:54;98767.63;;;-0.31;67.93
72798;BME280;61084;55.816;37.036;2023-02-28T13:50:37;98753.03;;;-0.32;68.25
72798;BME280;61084;55.816;37.036;2023-02-28T14:06:52;98759.16;;;-0.38;68.65
72798;BME280;61084;55.816;37.036;2023-02-28T14:09:40;98755.69;;;-0.35;69.45
72798;BME280;61084;55.816;37.036;2023-02-28T14:15:30;98760.66;;;-0.28;69.24
72798;BME280;61084;55.816;37.036;2023-02-28T14:17:57;98752.06;;;-0.27;69.01
72798;BME280;61084;55.816;37.036;2023-02-28T14:20:26;98752.09;;;-0.30;69.03
72798;BME280;61084;55.816;37.036;2023-02-28T14:23:40;98734.97;;;-0.32;68.85
72798;BME280;61084;55.816;37.036;2023-02-28T14:32:02;98739.25;;;-0.31;69.83
72798;BME280;61084;55.816;37.036;2023-02-28T14:34:42;98724.56;;;-0.28;69.37
72798;BME280;61084;55.816;37.036;2023-02-28T14:37:26;98728.03;;;-0.29;70.72
72798;BME280;61084;55.816;37.036;2023-02-28T14:39:53;98725.47;;;-0.30;70.26
72798;BME280;61084;55.816;37.036;2023-02-28T14:42:36;98716.03;;;-0.30;69.25
72798;BME280;61084;55.816;37.036;2023-02-28T14:45:19;98708.16;;;-0.24;70.67
72798;BME280;61084;55.816;37.036;2023-02-28T14:47:47;98702.97;;;-0.22;70.13
72798;BME280;61084;55.816;37.036;2023-02-28T14:50:21;98703.84;;;-0.23;70.53
72798;BME280;61084;55.816;37.036;2023-02-28T14:52:51;98698.63;;;-0.20;70.34
72798;BME280;61084;55.816;37.036;2023-02-28T14:55:19;98698.59;;;-0.19;69.94
72798;BME280;61084;55.816;37.036;2023-02-28T15:00:25;98704.59;;;-0.18;70.61
72798;BME280;61084;55.816;37.036;2023-02-28T15:02:52;98707.16;;;-0.17;70.28
72798;BME280;61084;55.816;37.036;2023-02-28T15:05:27;98707.09;;;-0.14;70.63
72798;BME280;61084;55.816;37.036;2023-02-28T15:08:16;98709.63;;;-0.12;71.16
72798;BME280;61084;55.816;37.036;2023-02-28T15:11:04;98709.53;;;-0.08;70.99
72798;BME280;61084;55.816;37.036;2023-02-28T15:13:40;98709.53;;;-0.08;71.09
72798;BME280;61084;55.816;37.036;2023-02-28T15:16:35;98703.47;;;-0.05;70.40
72798;BME280;61084;55.816;37.036;2023-02-28T15:19:24;98699.97;;;-0.03;70.33
72798;BME280;61084;55.816;37.036;2023-02-28T15:21:56;98693.97;;;-0.03;70.23
72798;BME280;61084;55.816;37.036;2023-02-28T15:24:39;98689.66;;;-0.04;70.94
72798;BME280;61084;55.816;37.036;2023-02-28T15:27:12;98687.94;;;-0.04;70.37
72798;BME280;61084;55.816;37.036;2023-02-28T15:29:55;98690.56;;;-0.05;71.29
72798;BME280;61084;55.816;37.036;2023-02-28T15:32:30;98677.63;;;-0.04;70.81